Breckenridge, Michigan
Current Conditions -  °F | °C
As of 12:31 AM on Monday 20 Oct 2014 (Local Time) from KAMN Reporting Station
Overcast Overcast  
Wind Chill: 44°   Ceiling: 8000
Heat Index: 48°   Visibility: 10mi
Dew Point: 38°   Wind: 8mph
Humidity: 70%   Direction: 200°SSW
Pressure: 29.91"   Gusts: NA
Location:  43.41°N, 84.48°W
Report Text: KAMN 200431Z AUTO 20007KT 10SM OVC080 09/04 A2991 RMK AO2 T00880035
Loading
Personal Weather Stations






























Interactive Weather Map
Tropical Storm Tracking
New forecast layout! Learn more

10-Day Weather Forecast

Advertisements
Track Severe Weather on mobile